Latest Weather Observations for Kiama

IDN60801

Issued at 10:23 pm EST Friday 20 July 2018 (issued every 10 minutes, with the page automatically refreshed every 10 minutes)

About weather observations | Map of weather stations | Latest weather observations for NSW | Other Formats
Station Details ID: 068242 Name: KIAMA (BOMBO HEADLAND) Lat: -34.65 Lon: 150.86 Height: 15.5 m
Data from the previous 72 hours. | See also: Recent months at Kiama
Date/Time
EST
Temp
°C
App
Temp
°C
Dew
Point
°C
Rel
Hum
%
Delta-T
°C
Wind Press
QNH
hPa
Press
MSL
hPa
Rain since
9am
mm
Dir  Spd
km/h
Gust
km/h
Spd
kts
Gust
kts
20/10:20pm 11.9 0.2 -1.9 38 5.4 W 50 89 27 48 - - 0.0
20/10:00pm 11.7 1.1 -1.8 39 5.3 W 44 69 24 37 - - 0.0
20/09:59pm 11.6 1.0 -1.5 40 5.2 W 44 69 24 37 - - 0.0
20/09:57pm 11.7 1.1 -1.8 39 5.3 W 44 69 24 37 - - 0.0
20/09:30pm 11.5 3.6 -1.3 41 5.1 WSW 30 54 16 29 - - 0.0
20/09:00pm 11.7 4.2 -1.4 40 5.2 WSW 28 48 15 26 - - 0.0
20/08:48pm 11.7 4.2 -1.4 40 5.2 SW 28 56 15 30 - - 0.0
20/08:30pm 11.6 5.3 -1.2 41 5.1 WSW 22 39 12 21 - - 0.0
20/08:17pm 11.6 4.0 -1.9 39 5.3 WSW 28 50 15 27 - - 0.0
20/08:00pm 11.5 6.1 -1.3 41 5.1 WSW 17 33 9 18 - - 0.0
20/07:30pm 11.6 4.9 -0.9 42 5.0 W 24 46 13 25 - - 0.0
20/07:00pm 11.8 5.5 -1.3 40 5.2 WSW 22 44 12 24 - - 0.0
20/06:51pm 11.9 4.4 -1.6 39 5.3 WSW 28 50 15 27 - - 0.0
20/06:30pm 11.9 5.2 -1.3 40 5.2 WSW 24 41 13 22 - - 0.0
20/06:06pm 12.1 7.8 -1.4 39 5.4 WSW 11 52 6 28 - - 0.0
20/06:00pm 11.4 8.0 -1.7 40 5.1 W 6 13 3 7 - - 0.0
20/05:30pm 12.1 7.9 -0.7 41 5.2 WSW 11 20 6 11 - - 0.0
20/05:00pm 12.5 4.5 -2.1 36 5.7 WSW 30 48 16 26 - - 0.0
20/04:30pm 13.1 4.8 -2.0 35 6.0 W 32 54 17 29 - - 0.0
20/04:02pm 13.6 5.4 -1.2 36 6.0 W 32 52 17 28 - - 0.0
20/04:00pm 13.6 5.4 -1.2 36 6.0 W 32 44 17 24 - - 0.0
20/03:30pm 14.0 5.8 -0.8 36 6.1 W 32 52 17 28 - - 0.0
20/03:00pm 14.3 5.8 -1.7 33 6.5 WSW 33 61 18 33 - - 0.0
20/02:30pm 14.4 5.2 -1.2 34 6.4 W 37 69 20 37 - - 0.0
20/02:02pm 14.4 5.3 -0.8 35 6.3 W 37 63 20 34 - - 0.0
20/02:00pm 14.4 5.3 -0.5 36 6.2 W 37 54 20 29 - - 0.0
20/01:31pm 14.4 6.8 0.6 39 5.9 W 30 54 16 29 - - 0.0
20/01:30pm 14.3 6.8 0.9 40 5.7 WSW 30 46 16 25 - - 0.0
20/01:02pm 14.1 6.3 1.4 42 5.5 W 32 50 17 27 - - 0.0
20/01:00pm 13.9 5.9 1.5 43 5.4 W 33 50 18 27 - - 0.0
20/12:30pm 13.6 5.5 0.9 42 5.4 WSW 33 57 18 31 - - 0.0
20/12:28pm 14.1 7.0 1.1 41 5.6 WSW 28 57 15 31 - - 0.0
20/12:00pm 15.6 8.8 3.1 43 5.7 WNW 28 52 15 28 - - 0.0
20/11:55am 15.5 6.8 2.3 41 5.9 W 37 59 20 32 - - 0.0
20/11:30am 17.7 8.4 0.8 32 7.4 W 39 59 21 32 - - 0.0
20/11:19am 19.1 12.2 0.2 28 8.3 NW 26 56 14 30 - - 0.0
20/11:00am 19.4 12.5 0.4 28 8.4 NW 26 46 14 25 - - 0.0
20/10:36am 17.9 12.7 0.1 30 7.7 N 17 39 9 21 - - 0.0
20/10:30am 17.4 13.2 1.4 34 7.1 NNE 13 20 7 11 - - 0.0
20/10:00am 16.0 12.6 1.7 38 6.3 N 9 13 5 7 - - 0.0
20/09:30am 16.4 14.1 0.1 33 7.0 WSW 2 6 1 3 - - 0.0
20/09:00am 15.9 13.2 0.5 35 6.6 NNW 4 11 2 6 - - 0.0
20/08:30am 14.1 11.2 4.4 52 4.5 NNE 9 13 5 7 - - 0.0
20/08:00am 13.9 11.9 2.5 46 5.0 W 2 6 1 3 - - 0.0
20/07:30am 11.2 8.5 0.0 46 4.6 SSW 4 7 2 4 - - 0.0
20/07:00am 10.7 8.3 -0.1 47 4.4 S 2 4 1 2 - - 0.0
20/06:30am 11.1 8.9 0.8 49 4.3 S 2 4 1 2 - - 0.0
20/06:00am 11.0 8.5 1.5 52 4.0 S 4 6 2 3 - - 0.0
20/05:30am 12.8 9.9 -1.1 38 5.6 NW 4 7 2 4 - - 0.0
20/05:00am 13.8 9.6 -1.0 36 6.0 NNW 11 17 6 9 - - 0.0
20/04:30am 12.9 8.2 1.0 44 5.0 N 15 20 8 11 - - 0.0
20/04:00am 14.4 10.3 -0.1 37 6.1 NW 11 17 6 9 - - 0.0
20/03:30am 14.1 9.5 -1.1 35 6.2 NNW 13 17 7 9 - - 0.0
20/03:00am 14.5 9.9 -0.8 35 6.3 NNW 13 17 7 9 - - 0.0
20/02:30am 14.8 10.6 -0.9 34 6.5 NNW 11 17 6 9 - - 0.0
20/02:00am 14.4 9.9 -0.1 37 6.1 NNW 13 22 7 12 - - 0.0
20/01:30am 12.9 9.7 1.0 44 5.0 NNW 7 11 4 6 - - 0.0
20/01:00am 12.2 9.1 3.4 55 3.9 N 9 11 5 6 - - 0.0
20/12:30am 12.7 9.0 2.3 49 4.5 N 11 15 6 8 - - 0.0
20/12:00am 13.8 10.0 1.5 43 5.3 N 11 17 6 9 - - 0.0
 
Date/Time
EST
Temp
°C
App
Temp
°C
Dew
Point
°C
Rel
Hum
%
Delta-T
°C
Wind Press
QNH
hPa
Press
MSL
hPa
Rain since
9am
mm
Dir  Spd
km/h
Gust
km/h
Spd
kts
Gust
kts
19/11:30pm 12.7 9.7 1.7 47 4.7 N 7 9 4 5 - - 0.0
19/11:00pm 12.7 9.3 2.0 48 4.6 N 9 13 5 7 - - 0.0
19/10:30pm 12.9 9.6 2.2 48 4.6 N 9 11 5 6 - - 0.0
19/10:00pm 12.2 8.2 2.9 53 4.1 N 13 17 7 9 - - 0.0
19/09:30pm 11.0 8.8 3.5 60 3.3 NW 4 9 2 5 - - 0.0
19/09:00pm 12.3 10.9 3.3 54 4.0 CALM 0 2 0 1 - - 0.0
19/08:30pm 13.9 11.7 3.4 49 4.7 NNW 4 6 2 3 - - 0.0
19/08:00pm 14.1 11.4 2.7 46 5.1 NNW 6 7 3 4 - - 0.0
19/07:30pm 14.5 11.8 3.6 48 5.0 NW 7 9 4 5 - - 0.0
19/07:00pm 14.9 12.0 4.6 50 4.8 NW 9 11 5 6 - - 0.0
19/06:30pm 16.4 14.0 8.6 60 4.0 N 11 19 6 10 - - 0.0
19/06:00pm 17.0 12.9 7.9 55 4.6 NNE 19 24 10 13 - - 0.0
19/05:30pm 17.2 12.7 7.0 51 5.1 NNE 20 28 11 15 - - 0.0
19/05:00pm 17.3 12.2 6.2 48 5.4 NNE 22 32 12 17 - - 0.0
19/04:30pm 17.8 12.4 6.3 47 5.7 N 24 33 13 18 - - 0.0
19/04:00pm 18.1 12.6 5.7 44 6.1 N 24 33 13 18 - - 0.0
19/03:30pm 17.6 11.2 5.2 44 6.0 N 28 37 15 20 - - 0.0
19/03:00pm 18.7 14.3 6.5 45 6.1 NNE 19 30 10 16 - - 0.0
19/02:30pm 20.9 16.2 1.2 27 9.0 NW 15 26 8 14 - - 0.0
19/02:00pm 20.1 16.2 -1.7 23 9.3 NW 9 28 5 15 - - 0.0
19/01:30pm 17.3 13.9 2.1 36 6.8 N 9 22 5 12 - - 0.0
19/01:00pm 15.9 13.0 1.6 38 6.3 N 6 7 3 4 - - 0.0
19/12:30pm 15.9 12.8 1.2 37 6.4 NW 7 19 4 10 - - 0.0
19/12:00pm 15.4 11.8 3.2 44 5.5 NE 11 17 6 9 - - 0.0
19/11:30am 15.7 12.1 3.2 43 5.7 ENE 11 17 6 9 - - 0.0
19/11:00am 15.5 12.1 1.6 39 6.1 NNE 9 15 5 8 - - 0.0
19/10:30am 15.2 11.8 1.7 40 5.9 N 9 13 5 7 - - 0.0
19/10:00am 14.4 11.4 2.3 44 5.3 N 7 15 4 8 - - 0.0
19/09:30am 13.6 10.0 0.9 42 5.4 NNW 9 15 5 8 - - 0.0
19/09:00am 13.2 9.3 0.9 43 5.2 N 11 15 6 8 - - 0.0
19/08:30am 13.2 9.6 0.6 42 5.3 N 9 13 5 7 - - 0.0
19/08:00am 13.2 9.6 0.6 42 5.3 NNW 9 15 5 8 - - 0.0
19/07:30am 12.8 9.6 0.9 44 5.0 N 7 13 4 7 - - 0.0
19/07:00am 10.6 7.5 0.3 49 4.2 N 6 9 3 5 - - 0.0
19/06:30am 11.0 7.2 -1.1 43 4.8 NNW 9 13 5 7 - - 0.0
19/06:00am 11.7 7.9 -0.8 42 5.0 NNW 9 17 5 9 - - 0.0
19/05:30am 11.3 8.1 -0.8 43 4.8 WSW 6 15 3 8 - - 0.0
19/05:00am 11.4 6.8 -1.4 41 5.1 NW 13 22 7 12 - - 0.0
19/04:30am 11.6 8.4 -0.5 43 4.9 NNW 6 13 3 7 - - 0.0
19/04:00am 11.4 8.0 -1.7 40 5.1 NW 6 15 3 8 - - 0.0
19/03:30am 11.9 8.9 -1.6 39 5.3 WSW 4 11 2 6 - - 0.0
19/03:00am 10.4 7.7 0.4 50 4.1 WNW 4 7 2 4 - - 0.0
19/02:30am 10.5 7.9 1.1 52 3.9 NW 4 6 2 3 - - 0.0
19/02:00am 9.8 7.4 2.2 59 3.2 SSW 4 9 2 5 - - 0.0
19/01:30am 9.9 8.3 2.7 61 3.1 CALM 0 0 0 0 - - 0.0
19/01:00am 9.9 7.7 1.3 55 3.6 W 2 2 1 1 - - 0.0
19/12:30am 10.6 7.4 -0.5 46 4.4 WNW 6 7 3 4 - - 0.0
19/12:00am 11.3 7.9 -0.8 43 4.8 WNW 7 11 4 6 - - 0.0
 
Date/Time
EST
Temp
°C
App
Temp
°C
Dew
Point
°C
Rel
Hum
%
Delta-T
°C
Wind Press
QNH
hPa
Press
MSL
hPa
Rain since
9am
mm
Dir  Spd
km/h
Gust
km/h
Spd
kts
Gust
kts
18/11:30pm 10.1 7.8 0.4 51 3.9 WNW 2 4 1 2 - - 0.0
18/11:00pm 9.8 7.9 0.4 52 3.8 CALM 0 2 0 1 - - 0.0
18/10:30pm 10.8 7.4 -0.6 45 4.6 WNW 7 11 4 6 - - 0.0
18/10:00pm 11.2 7.7 -1.2 42 4.9 WNW 7 11 4 6 - - 0.0
18/09:30pm 11.7 7.5 -1.1 41 5.1 WSW 11 15 6 8 - - 0.0
18/09:00pm 12.7 8.6 -0.2 41 5.3 SW 11 20 6 11 - - 0.0
18/08:30pm 11.5 8.1 -0.6 43 4.9 W 7 9 4 5 - - 0.0
18/08:00pm 12.3 9.4 -1.2 39 5.4 W 4 6 2 3 - - 0.0
18/07:30pm 13.1 9.5 -2.4 34 6.1 WNW 7 11 4 6 - - 0.0
18/07:00pm 12.8 10.1 -2.3 35 5.9 W 2 9 1 5 - - 0.0
18/06:30pm 13.4 9.4 -2.5 33 6.3 W 9 13 5 7 - - 0.0
18/06:00pm 14.5 10.8 -3.3 29 7.0 W 7 15 4 8 - - 0.0
18/05:30pm 14.9 10.9 -2.5 30 7.0 WNW 9 13 5 7 - - 0.0
18/05:00pm 15.6 12.0 -1.9 30 7.1 WNW 7 13 4 7 - - 0.0
18/04:30pm 17.7 14.0 -2.5 25 8.3 WNW 7 11 4 6 - - 0.0
18/04:00pm 18.3 14.6 -3.2 23 8.8 WSW 7 11 4 6 - - 0.0
18/03:30pm 18.5 14.0 -3.6 22 8.9 WSW 11 17 6 9 - - 0.0
18/03:00pm 18.9 14.4 -3.3 22 9.1 W 11 22 6 12 - - 0.0
18/02:30pm 19.0 14.2 -2.6 23 9.0 W 13 22 7 12 - - 0.0
18/02:00pm 18.7 13.4 -3.4 22 9.0 WNW 15 24 8 13 - - 0.0
18/01:30pm 18.7 15.1 -2.3 24 8.7 W 7 15 4 8 - - 0.0
18/01:00pm 18.6 14.6 -2.3 24 8.7 W 9 20 5 11 - - 0.0
18/12:30pm 17.8 13.4 -2.5 25 8.3 W 11 20 6 11 - - 0.0
18/12:00pm 17.2 13.8 -1.9 27 7.9 W 6 9 3 5 - - 0.0
18/11:30am 16.1 12.7 -1.9 29 7.4 SW 6 11 3 6 - - 0.0
18/11:00am 15.5 10.7 -2.9 28 7.3 W 13 30 7 16 - - 0.0
18/10:30am 15.8 11.0 -2.2 29 7.3 WNW 13 22 7 12 - - 0.0
18/10:00am 15.3 10.5 -2.2 30 7.1 WNW 13 22 7 12 - - 0.0
18/09:30am 14.4 8.9 -2.1 32 6.6 WNW 17 32 9 17 - - 0.0
18/09:00am 14.1 10.0 -0.4 37 6.0 NW 11 26 6 14 - - 0.0
18/08:30am 12.7 9.1 0.8 44 5.0 NNW 9 13 5 7 - - 0.0
18/08:00am 12.7 6.7 -1.2 38 5.6 WNW 20 35 11 19 - - 0.0
18/07:30am 12.1 6.9 -0.1 43 5.0 W 17 26 9 14 - - 0.0
18/07:00am 11.6 6.8 0.1 45 4.7 WNW 15 22 8 12 - - 0.0
18/06:30am 12.0 8.8 -0.5 42 5.1 W 6 11 3 6 - - 0.0
18/06:00am 12.4 8.3 -0.5 41 5.3 W 11 17 6 9 - - 0.0
18/05:30am 12.0 8.8 -0.5 42 5.1 SW 6 7 3 4 - - 0.0
18/05:00am 13.8 9.6 1.8 44 5.2 SSW 13 17 7 9 - - 0.0
18/04:30am 14.0 9.2 -0.1 38 5.9 WSW 15 26 8 14 - - 0.0
18/04:00am 14.6 8.9 0.8 39 5.9 SW 20 28 11 15 - - 0.0
18/03:30am 15.1 10.3 2.6 43 5.6 S 17 24 9 13 - - 0.0
18/03:00am 15.3 12.1 2.8 43 5.6 W 9 17 5 9 - - 0.0
18/02:30am 14.9 11.7 3.1 45 5.3 SW 9 13 5 7 - - 0.0
18/02:00am 16.2 13.2 2.2 39 6.3 WNW 7 13 4 7 - - 0.0
18/01:30am 17.0 12.6 0.6 33 7.1 NW 13 19 7 10 - - 0.0
18/01:00am 17.9 13.2 0.6 31 7.6 WSW 15 37 8 20 - - 0.0
18/12:30am 18.7 12.9 -0.2 28 8.2 W 20 37 11 20 - - 0.0
18/12:00am 19.3 13.1 -0.1 27 8.5 NW 22 52 12 28 - - 0.0
 
Date/Time
EST
Temp
°C
App
Temp
°C
Dew
Point
°C
Rel
Hum
%
Delta-T
°C
Wind Press
QNH
hPa
Press
MSL
hPa
Rain since
9am
mm
Dir  Spd
km/h
Gust
km/h
Spd
kts
Gust
kts
17/11:30pm 19.4 14.0 -1.1 25 8.8 NNW 17 50 9 27 - - 0.0
17/11:00pm 18.5 13.8 -1.9 25 8.6 NW 13 28 7 15 - - 0.0
17/10:30pm 15.7 12.6 -2.3 29 7.3 S 4 15 2 8 - - 0.0

Other Formats:

Comma delimited format used in spreadsheet applications
http://www.bom.gov.au/fwo/IDN60801/IDN60801.95749.axf

JavaScript Object Notation format (JSON) in row-major order
http://www.bom.gov.au/fwo/IDN60801/IDN60801.95749.json